createdAt,value
2022-12-23T00:00:02.053Z,102.28
2022-12-23T00:05:01.869Z,102.42
2022-12-23T00:10:02.183Z,102.42
2022-12-23T00:15:01.800Z,102.28
2022-12-23T00:20:02.216Z,102.37
2022-12-23T00:25:01.888Z,102.39
2022-12-23T00:30:02.013Z,102.48
2022-12-23T00:35:02.045Z,102.34
2022-12-23T00:40:06.615Z,102.52
2022-12-23T00:45:01.903Z,102.55
2022-12-23T00:50:01.975Z,102.39
2022-12-23T00:55:02.233Z,102.36
2022-12-23T01:00:01.675Z,102.27
2022-12-23T01:05:02.190Z,102.33
2022-12-23T01:10:01.505Z,102.36
2022-12-23T01:15:02.016Z,102.47
2022-12-23T01:20:01.924Z,102.35
2022-12-23T01:25:01.486Z,102.59
2022-12-23T01:30:01.847Z,102.5
2022-12-23T01:35:02.449Z,102.49
2022-12-23T01:40:01.342Z,102.57
2022-12-23T01:45:01.882Z,102.58
2022-12-23T01:50:02.021Z,102.49
2022-12-23T01:55:02.193Z,102.43
2022-12-23T02:00:01.593Z,102.55
2022-12-23T02:05:02.047Z,102.52
2022-12-23T02:10:01.611Z,102.5
2022-12-23T02:15:01.791Z,102.59
2022-12-23T02:20:01.929Z,102.5
2022-12-23T02:25:01.815Z,102.35
2022-12-23T02:30:02.144Z,102.45
2022-12-23T02:35:02.160Z,102.58
2022-12-23T02:40:02.077Z,102.53
2022-12-23T02:45:01.434Z,102.54
2022-12-23T02:50:01.964Z,102.43
2022-12-23T02:55:01.997Z,102.29
2022-12-23T03:00:02.143Z,102.47
2022-12-23T03:05:01.469Z,102.45
2022-12-23T03:10:01.394Z,102.59
2022-12-23T03:15:02.014Z,102.73
2022-12-23T03:20:01.496Z,102.59
2022-12-23T03:25:01.957Z,102.61
2022-12-23T03:30:01.559Z,102.63
2022-12-23T03:35:02.023Z,102.46
2022-12-23T03:40:01.753Z,102.37
2022-12-23T03:45:37.075Z,102.39
2022-12-23T03:50:01.710Z,102.15
2022-12-23T03:55:02.202Z,102.09
2022-12-23T04:00:01.323Z,102.18
2022-12-23T04:05:01.422Z,102.08
2022-12-23T04:10:01.750Z,101.99
2022-12-23T04:15:04.806Z,101.96
2022-12-23T04:20:02.224Z,101.81
2022-12-23T04:25:01.906Z,101.73
2022-12-23T04:30:02.036Z,101.65
2022-12-23T04:35:01.983Z,101.59
2022-12-23T04:40:01.367Z,101.74
2022-12-23T04:45:01.862Z,101.76
2022-12-23T04:50:01.871Z,101.52
2022-12-23T04:55:01.913Z,101.46
2022-12-23T05:00:01.291Z,101.3
2022-12-23T05:05:02.292Z,101.3
2022-12-23T05:10:01.334Z,101.11
2022-12-23T05:15:01.436Z,101.04
2022-12-23T05:20:02.020Z,100.98
2022-12-23T05:25:02.088Z,100.85
2022-12-23T05:30:02.127Z,100.78
2022-12-23T05:35:02.069Z,100.83
2022-12-23T05:40:01.982Z,100.75
2022-12-23T05:45:01.599Z,100.58
2022-12-23T05:50:01.698Z,100.59
2022-12-23T05:55:01.756Z,100.72
2022-12-23T06:00:01.783Z,100.48
2022-12-23T06:05:02.025Z,100.28
2022-12-23T06:10:02.189Z,100.24
2022-12-23T06:15:02.172Z,100.27
2022-12-23T06:20:01.834Z,100.13
2022-12-23T06:25:02.236Z,100.13
2022-12-23T06:30:02.054Z,100.42
2022-12-23T06:35:02.249Z,100.75
2022-12-23T06:40:02.175Z,100.82
2022-12-23T06:45:02.210Z,101
2022-12-23T06:50:02.250Z,100.91
2022-12-23T06:55:02.149Z,100.87
2022-12-23T07:00:02.176Z,100.75
2022-12-23T07:05:01.268Z,101.01
2022-12-23T07:10:01.656Z,101.3
2022-12-23T07:15:01.837Z,101.07
2022-12-23T07:20:01.522Z,100.95
2022-12-23T07:25:01.789Z,101.36
2022-12-23T07:30:01.901Z,101.4
2022-12-23T07:35:01.968Z,101.4
2022-12-23T07:40:08.020Z,101.34
2022-12-23T07:45:01.570Z,101.19
2022-12-23T07:50:01.396Z,101.04
2022-12-23T07:55:01.440Z,101.04
2022-12-23T08:00:02.272Z,101.14
2022-12-23T08:05:01.469Z,101.11
2022-12-23T08:10:01.998Z,101.27
2022-12-23T08:15:02.229Z,101.33
2022-12-23T08:20:01.365Z,101.28
2022-12-23T08:25:01.470Z,101.32
2022-12-23T08:30:01.900Z,101.47
2022-12-23T08:35:02.090Z,101.64
2022-12-23T08:40:02.054Z,101.62
2022-12-23T08:45:01.305Z,101.62
2022-12-23T08:50:01.497Z,101.49
2022-12-23T08:55:01.947Z,101.31
2022-12-23T09:00:02.024Z,100.94
2022-12-23T09:05:02.179Z,101.2
2022-12-23T09:10:01.466Z,101.18
2022-12-23T09:15:01.781Z,101.17
2022-12-23T09:20:02.196Z,101.12
2022-12-23T09:25:04.750Z,101.06
2022-12-23T09:30:01.542Z,100.92
2022-12-23T09:35:01.697Z,100.64
2022-12-23T09:40:01.975Z,100.75
2022-12-23T09:45:02.041Z,99.96
2022-12-23T09:50:02.124Z,99.65
2022-12-23T09:55:02.146Z,99.55
2022-12-23T10:00:02.134Z,99.7
2022-12-23T10:05:02.081Z,99.05
2022-12-23T10:10:02.016Z,98.63
2022-12-23T10:15:02.196Z,98.48
2022-12-23T10:20:01.642Z,99.93
2022-12-23T10:25:01.908Z,99.62
2022-12-23T10:30:14.229Z,98.31
2022-12-23T10:35:01.409Z,98.18
2022-12-23T10:40:01.636Z,96.15
2022-12-23T10:45:01.538Z,98.48
2022-12-23T10:50:01.582Z,96.23
2022-12-23T10:55:01.639Z,98.28
2022-12-23T11:00:01.672Z,98.6
2022-12-23T11:05:01.744Z,99.15
2022-12-23T11:10:02.054Z,99.86
2022-12-23T11:15:01.846Z,100.04
2022-12-23T11:20:02.134Z,98.84
2022-12-23T11:25:02.003Z,99.1
2022-12-23T11:30:01.956Z,99.88
2022-12-23T11:35:02.127Z,100.14
2022-12-23T11:40:02.009Z,100.48
2022-12-23T11:45:01.850Z,100.98
2022-12-23T11:50:01.805Z,101.05
2022-12-23T11:55:02.002Z,101.36
2022-12-23T12:00:02.004Z,101.76
2022-12-23T12:05:02.102Z,101.99
2022-12-23T12:10:02.174Z,102.07
2022-12-23T12:15:01.446Z,102.14
2022-12-23T12:20:01.673Z,102.24
2022-12-23T12:25:01.785Z,102.55
2022-12-23T12:30:07.712Z,102.39
2022-12-23T12:35:01.578Z,102.37
2022-12-23T12:40:01.705Z,102.38
2022-12-23T12:45:01.627Z,102.7
2022-12-23T12:50:01.834Z,102.81
2022-12-23T12:55:01.779Z,102.84
2022-12-23T13:00:06.498Z,102.87
2022-12-23T13:05:01.828Z,102.85
2022-12-23T13:10:02.107Z,102.85
2022-12-23T13:15:01.583Z,103.22
2022-12-23T13:20:02.099Z,103.18
2022-12-23T13:25:01.952Z,103.36
2022-12-23T13:30:02.227Z,103.39
2022-12-23T13:35:02.019Z,103.42
2022-12-23T13:40:02.041Z,103.36
2022-12-23T13:45:01.930Z,103.49
2022-12-23T13:50:02.103Z,103.42
2022-12-23T13:55:02.233Z,103.44
2022-12-23T14:00:05.981Z,103.23
2022-12-23T14:05:01.514Z,103.26
2022-12-23T14:10:02.250Z,103.19
2022-12-23T14:15:02.158Z,103.12
2022-12-23T14:20:02.259Z,103.05
2022-12-23T14:25:02.144Z,103.04
2022-12-23T14:30:06.029Z,103.21
2022-12-23T14:35:01.973Z,103.09
2022-12-23T14:40:01.930Z,103.17
2022-12-23T14:45:01.770Z,103.17
2022-12-23T14:50:02.045Z,103.26
2022-12-23T14:55:29.014Z,103.34
2022-12-23T15:00:01.538Z,103.19
2022-12-23T15:05:01.321Z,103.38
2022-12-23T15:10:01.783Z,103.37
2022-12-23T15:15:01.781Z,103.36
2022-12-23T15:20:01.804Z,103.42
2022-12-23T15:25:01.748Z,103.27
2022-12-23T15:30:01.777Z,103.22
2022-12-23T15:35:02.081Z,103.77
2022-12-23T15:40:11.882Z,103.58
2022-12-23T15:45:02.023Z,103.5
2022-12-23T15:50:01.938Z,103.46
2022-12-23T15:55:02.117Z,103.58
2022-12-23T16:00:01.416Z,103.55
2022-12-23T16:05:01.494Z,103.31
2022-12-23T16:10:01.665Z,103.34
2022-12-23T16:15:01.887Z,103.52
2022-12-23T16:20:01.362Z,103.61
2022-12-23T16:25:01.298Z,103.49
2022-12-23T16:30:01.518Z,103.34
2022-12-23T16:35:01.744Z,103.33
2022-12-23T16:40:01.710Z,103.37
2022-12-23T16:45:01.633Z,103.61
2022-12-23T16:50:02.083Z,103.58
2022-12-23T16:55:01.836Z,103
2022-12-23T17:00:01.916Z,101.79
2022-12-23T17:05:02.212Z,101.8
2022-12-23T17:10:01.514Z,101.75
2022-12-23T17:15:01.736Z,101.75
2022-12-23T17:20:01.832Z,100.66
2022-12-23T17:25:01.871Z,99.84
2022-12-23T17:30:02.078Z,98.66
2022-12-23T17:35:01.379Z,98.46
2022-12-23T17:40:01.719Z,98.76
2022-12-23T17:45:01.770Z,97.08
2022-12-23T17:50:01.818Z,95.7
2022-12-23T17:55:01.574Z,95.6
2022-12-23T18:00:01.689Z,94.92
2022-12-23T18:05:01.965Z,95.57
2022-12-23T18:10:01.961Z,96.21
2022-12-23T18:15:01.717Z,96.35
2022-12-23T18:20:01.811Z,95.76
2022-12-23T18:25:01.987Z,96.76
2022-12-23T18:30:02.052Z,96.57
2022-12-23T18:35:02.003Z,96.15
2022-12-23T18:40:01.798Z,96.97
2022-12-23T18:45:01.899Z,95.97
2022-12-23T18:50:02.080Z,94.94
2022-12-23T18:55:01.879Z,95.12
2022-12-23T19:00:02.139Z,95.78
2022-12-23T19:05:01.993Z,95.26
2022-12-23T19:10:02.173Z,93.84
2022-12-23T19:15:02.108Z,94.51
2022-12-23T19:20:01.615Z,94.75
2022-12-23T19:25:06.562Z,95.85
2022-12-23T19:30:01.367Z,96.41
2022-12-23T19:35:01.577Z,96.74
2022-12-23T19:40:01.641Z,95.92
2022-12-23T19:45:01.641Z,95.63
2022-12-23T19:50:01.850Z,95.62
2022-12-23T19:55:01.827Z,95.57
2022-12-23T20:00:01.739Z,95.59
2022-12-23T20:05:01.965Z,95.22
2022-12-23T20:10:02.184Z,94.43
2022-12-23T20:15:01.346Z,93.87
2022-12-23T20:20:02.256Z,95.38
2022-12-23T20:25:01.321Z,95.57
2022-12-23T20:30:01.740Z,95.62
2022-12-23T20:35:01.881Z,96.05
2022-12-23T20:40:01.522Z,96.57
2022-12-23T20:45:01.838Z,97
2022-12-23T20:50:01.977Z,97.07
2022-12-23T20:55:01.889Z,97.07
2022-12-23T21:00:01.685Z,94.93
2022-12-23T21:05:01.931Z,94.16
2022-12-23T21:10:02.174Z,93.71
2022-12-23T21:15:02.260Z,92.16
2022-12-23T21:20:07.260Z,91.85
2022-12-23T21:25:01.484Z,91.84
2022-12-23T21:30:01.719Z,91.83
2022-12-23T21:35:01.709Z,92.51
2022-12-23T21:40:01.751Z,92.47
2022-12-23T21:45:01.890Z,92.45
2022-12-23T21:50:02.200Z,92.83
2022-12-23T21:55:02.142Z,92.09
2022-12-23T22:00:01.937Z,92.38
2022-12-23T22:05:02.033Z,91.55
2022-12-23T22:10:02.105Z,91.42
2022-12-23T22:15:05.060Z,91.16
2022-12-23T22:20:02.022Z,91.31
2022-12-23T22:25:02.092Z,90.98
2022-12-23T22:30:01.491Z,90.57
2022-12-23T22:35:01.628Z,90.86
2022-12-23T22:40:01.754Z,90.51
2022-12-23T22:45:01.711Z,90.96
2022-12-23T22:50:01.933Z,90.98
2022-12-23T22:55:01.519Z,91.19
2022-12-23T23:00:07.869Z,91.64
2022-12-23T23:05:02.545Z,90.97
2022-12-23T23:10:02.077Z,90.68
2022-12-23T23:15:02.076Z,91
2022-12-23T23:20:01.358Z,91
2022-12-23T23:25:01.432Z,90.53
2022-12-23T23:30:01.352Z,90.16
2022-12-23T23:35:08.696Z,88.2
2022-12-23T23:40:01.542Z,88.37
2022-12-23T23:45:01.964Z,88.66
2022-12-23T23:50:02.136Z,87.65
2022-12-23T23:55:02.049Z,88.3
